sensor_id;sensor_type;location;lat;lon;timestamp;P1;durP1;ratioP1;P2;durP2;ratioP2
15155;SDS011;7678;50.058;8.306;2023-05-14T00:00:17;4.23;;;2.90;;
15155;SDS011;7678;50.058;8.306;2023-05-14T00:02:48;4.53;;;3.60;;
15155;SDS011;7678;50.058;8.306;2023-05-14T00:05:17;5.27;;;3.47;;
15155;SDS011;7678;50.058;8.306;2023-05-14T00:07:45;6.63;;;2.97;;
15155;SDS011;7678;50.058;8.306;2023-05-14T00:10:13;3.27;;;2.93;;
15155;SDS011;7678;50.058;8.306;2023-05-14T00:12:43;5.17;;;3.10;;
15155;SDS011;7678;50.058;8.306;2023-05-14T00:15:11;3.30;;;3.00;;
15155;SDS011;7678;50.058;8.306;2023-05-14T00:17:39;3.10;;;2.80;;
15155;SDS011;7678;50.058;8.306;2023-05-14T00:20:09;3.63;;;2.97;;
15155;SDS011;7678;50.058;8.306;2023-05-14T00:22:38;3.57;;;3.20;;
15155;SDS011;7678;50.058;8.306;2023-05-14T00:25:07;3.33;;;3.03;;
15155;SDS011;7678;50.058;8.306;2023-05-14T00:27:35;3.57;;;3.20;;
15155;SDS011;7678;50.058;8.306;2023-05-14T00:30:04;3.87;;;3.47;;
15155;SDS011;7678;50.058;8.306;2023-05-14T00:32:33;3.97;;;3.40;;
15155;SDS011;7678;50.058;8.306;2023-05-14T00:35:01;6.43;;;3.10;;
15155;SDS011;7678;50.058;8.306;2023-05-14T00:37:31;4.37;;;3.93;;
15155;SDS011;7678;50.058;8.306;2023-05-14T00:39:58;5.57;;;3.20;;
15155;SDS011;7678;50.058;8.306;2023-05-14T00:42:26;5.50;;;3.60;;
15155;SDS011;7678;50.058;8.306;2023-05-14T00:44:54;4.83;;;3.30;;
15155;SDS011;7678;50.058;8.306;2023-05-14T00:47:22;4.07;;;3.37;;
15155;SDS011;7678;50.058;8.306;2023-05-14T00:49:51;6.50;;;3.77;;
15155;SDS011;7678;50.058;8.306;2023-05-14T00:52:19;4.13;;;3.33;;
15155;SDS011;7678;50.058;8.306;2023-05-14T00:54:49;4.10;;;3.70;;
15155;SDS011;7678;50.058;8.306;2023-05-14T00:57:18;5.13;;;3.60;;
15155;SDS011;7678;50.058;8.306;2023-05-14T00:59:46;4.40;;;3.93;;
15155;SDS011;7678;50.058;8.306;2023-05-14T01:02:15;4.43;;;3.50;;
15155;SDS011;7678;50.058;8.306;2023-05-14T01:04:43;4.43;;;3.80;;
15155;SDS011;7678;50.058;8.306;2023-05-14T01:07:14;4.53;;;4.13;;
15155;SDS011;7678;50.058;8.306;2023-05-14T01:09:48;4.20;;;3.80;;
15155;SDS011;7678;50.058;8.306;2023-05-14T01:12:26;4.37;;;3.87;;
15155;SDS011;7678;50.058;8.306;2023-05-14T01:15:01;8.00;;;3.97;;
15155;SDS011;7678;50.058;8.306;2023-05-14T01:17:39;4.53;;;4.13;;
15155;SDS011;7678;50.058;8.306;2023-05-14T01:20:12;5.43;;;4.20;;
15155;SDS011;7678;50.058;8.306;2023-05-14T01:22:43;4.90;;;3.60;;
15155;SDS011;7678;50.058;8.306;2023-05-14T01:25:11;6.27;;;4.10;;
15155;SDS011;7678;50.058;8.306;2023-05-14T01:27:40;5.20;;;4.10;;
15155;SDS011;7678;50.058;8.306;2023-05-14T01:30:15;4.40;;;4.00;;
15155;SDS011;7678;50.058;8.306;2023-05-14T01:32:50;4.90;;;4.40;;
15155;SDS011;7678;50.058;8.306;2023-05-14T01:35:21;4.67;;;4.17;;
15155;SDS011;7678;50.058;8.306;2023-05-14T01:37:55;6.43;;;4.00;;
15155;SDS011;7678;50.058;8.306;2023-05-14T01:40:25;4.63;;;4.00;;
15155;SDS011;7678;50.058;8.306;2023-05-14T01:42:54;4.33;;;3.60;;
15155;SDS011;7678;50.058;8.306;2023-05-14T01:45:23;4.70;;;4.00;;
15155;SDS011;7678;50.058;8.306;2023-05-14T01:47:52;5.10;;;4.40;;
15155;SDS011;7678;50.058;8.306;2023-05-14T01:50:21;4.20;;;3.80;;
15155;SDS011;7678;50.058;8.306;2023-05-14T01:52:50;4.50;;;3.83;;
15155;SDS011;7678;50.058;8.306;2023-05-14T01:55:23;7.27;;;4.70;;
15155;SDS011;7678;50.058;8.306;2023-05-14T01:57:52;6.17;;;4.47;;
15155;SDS011;7678;50.058;8.306;2023-05-14T02:00:20;6.23;;;4.57;;
15155;SDS011;7678;50.058;8.306;2023-05-14T02:02:50;5.57;;;3.97;;
15155;SDS011;7678;50.058;8.306;2023-05-14T02:05:19;4.90;;;4.40;;
15155;SDS011;7678;50.058;8.306;2023-05-14T02:07:47;5.47;;;4.53;;
15155;SDS011;7678;50.058;8.306;2023-05-14T02:10:16;5.03;;;4.53;;
15155;SDS011;7678;50.058;8.306;2023-05-14T02:12:46;4.83;;;4.40;;
15155;SDS011;7678;50.058;8.306;2023-05-14T02:15:14;6.67;;;4.60;;
15155;SDS011;7678;50.058;8.306;2023-05-14T02:17:42;5.30;;;4.80;;
15155;SDS011;7678;50.058;8.306;2023-05-14T02:20:11;4.83;;;4.43;;
15155;SDS011;7678;50.058;8.306;2023-05-14T02:22:39;5.40;;;4.90;;
15155;SDS011;7678;50.058;8.306;2023-05-14T02:25:10;6.43;;;5.10;;
15155;SDS011;7678;50.058;8.306;2023-05-14T02:27:39;5.60;;;5.00;;
15155;SDS011;7678;50.058;8.306;2023-05-14T02:30:09;6.60;;;4.57;;
15155;SDS011;7678;50.058;8.306;2023-05-14T02:32:38;5.20;;;4.70;;
15155;SDS011;7678;50.058;8.306;2023-05-14T02:35:06;5.53;;;4.47;;
15155;SDS011;7678;50.058;8.306;2023-05-14T02:37:35;5.73;;;4.47;;
15155;SDS011;7678;50.058;8.306;2023-05-14T02:40:04;4.73;;;4.27;;
15155;SDS011;7678;50.058;8.306;2023-05-14T02:42:33;5.10;;;4.30;;
15155;SDS011;7678;50.058;8.306;2023-05-14T02:45:01;5.40;;;4.90;;
15155;SDS011;7678;50.058;8.306;2023-05-14T02:47:31;5.20;;;4.70;;
15155;SDS011;7678;50.058;8.306;2023-05-14T02:50:03;5.27;;;4.57;;
15155;SDS011;7678;50.058;8.306;2023-05-14T02:52:32;4.57;;;4.17;;
15155;SDS011;7678;50.058;8.306;2023-05-14T02:55:00;6.43;;;4.73;;
15155;SDS011;7678;50.058;8.306;2023-05-14T02:57:30;5.67;;;5.13;;
15155;SDS011;7678;50.058;8.306;2023-05-14T02:59:58;4.97;;;4.43;;
15155;SDS011;7678;50.058;8.306;2023-05-14T03:02:27;5.10;;;4.60;;
15155;SDS011;7678;50.058;8.306;2023-05-14T03:04:57;5.10;;;4.50;;
15155;SDS011;7678;50.058;8.306;2023-05-14T03:07:25;6.67;;;4.50;;
15155;SDS011;7678;50.058;8.306;2023-05-14T03:09:53;5.10;;;4.03;;
15155;SDS011;7678;50.058;8.306;2023-05-14T03:12:21;5.33;;;4.83;;
15155;SDS011;7678;50.058;8.306;2023-05-14T03:14:49;6.70;;;5.43;;
15155;SDS011;7678;50.058;8.306;2023-05-14T03:17:17;5.30;;;4.80;;
15155;SDS011;7678;50.058;8.306;2023-05-14T03:19:46;5.60;;;4.83;;
15155;SDS011;7678;50.058;8.306;2023-05-14T03:22:16;5.03;;;4.43;;
15155;SDS011;7678;50.058;8.306;2023-05-14T03:24:44;6.60;;;4.67;;
15155;SDS011;7678;50.058;8.306;2023-05-14T03:27:12;4.77;;;4.33;;
15155;SDS011;7678;50.058;8.306;2023-05-14T03:29:40;5.67;;;5.17;;
15155;SDS011;7678;50.058;8.306;2023-05-14T03:32:08;6.23;;;5.20;;
15155;SDS011;7678;50.058;8.306;2023-05-14T03:34:36;6.50;;;5.10;;
15155;SDS011;7678;50.058;8.306;2023-05-14T03:37:05;5.30;;;4.80;;
15155;SDS011;7678;50.058;8.306;2023-05-14T03:39:34;6.33;;;5.30;;
15155;SDS011;7678;50.058;8.306;2023-05-14T03:42:03;5.47;;;4.97;;
15155;SDS011;7678;50.058;8.306;2023-05-14T03:44:31;6.10;;;5.20;;
15155;SDS011;7678;50.058;8.306;2023-05-14T03:46:59;5.83;;;5.00;;
15155;SDS011;7678;50.058;8.306;2023-05-14T03:49:27;5.87;;;4.97;;
15155;SDS011;7678;50.058;8.306;2023-05-14T03:51:56;7.57;;;6.00;;
15155;SDS011;7678;50.058;8.306;2023-05-14T03:54:24;6.10;;;5.43;;
15155;SDS011;7678;50.058;8.306;2023-05-14T03:56:54;8.07;;;6.00;;
15155;SDS011;7678;50.058;8.306;2023-05-14T03:59:22;6.93;;;5.40;;
15155;SDS011;7678;50.058;8.306;2023-05-14T04:01:50;6.20;;;5.60;;
15155;SDS011;7678;50.058;8.306;2023-05-14T04:04:18;6.10;;;5.60;;
15155;SDS011;7678;50.058;8.306;2023-05-14T04:06:46;7.07;;;5.60;;
15155;SDS011;7678;50.058;8.306;2023-05-14T04:09:15;6.13;;;5.50;;
15155;SDS011;7678;50.058;8.306;2023-05-14T04:11:43;6.37;;;5.77;;
15155;SDS011;7678;50.058;8.306;2023-05-14T04:14:12;5.77;;;5.27;;
15155;SDS011;7678;50.058;8.306;2023-05-14T04:16:40;7.83;;;5.53;;
15155;SDS011;7678;50.058;8.306;2023-05-14T04:19:09;6.10;;;5.50;;
15155;SDS011;7678;50.058;8.306;2023-05-14T04:21:37;10.03;;;5.50;;
15155;SDS011;7678;50.058;8.306;2023-05-14T04:24:06;5.80;;;5.17;;
15155;SDS011;7678;50.058;8.306;2023-05-14T04:26:34;5.90;;;5.40;;
15155;SDS011;7678;50.058;8.306;2023-05-14T04:29:02;5.47;;;4.97;;
15155;SDS011;7678;50.058;8.306;2023-05-14T04:31:32;6.77;;;6.03;;
15155;SDS011;7678;50.058;8.306;2023-05-14T04:34:00;6.10;;;5.23;;
15155;SDS011;7678;50.058;8.306;2023-05-14T04:36:28;5.77;;;5.17;;
15155;SDS011;7678;50.058;8.306;2023-05-14T04:38:56;5.97;;;5.27;;
15155;SDS011;7678;50.058;8.306;2023-05-14T04:41:24;6.13;;;5.43;;
15155;SDS011;7678;50.058;8.306;2023-05-14T04:43:54;5.43;;;4.93;;
15155;SDS011;7678;50.058;8.306;2023-05-14T04:46:22;8.63;;;5.03;;
15155;SDS011;7678;50.058;8.306;2023-05-14T04:48:52;6.60;;;6.00;;
15155;SDS011;7678;50.058;8.306;2023-05-14T04:51:20;5.67;;;5.07;;
15155;SDS011;7678;50.058;8.306;2023-05-14T04:53:48;5.63;;;5.03;;
15155;SDS011;7678;50.058;8.306;2023-05-14T04:56:14;5.47;;;4.93;;
15155;SDS011;7678;50.058;8.306;2023-05-14T04:58:42;5.50;;;5.00;;
15155;SDS011;7678;50.058;8.306;2023-05-14T05:01:10;5.70;;;5.10;;
15155;SDS011;7678;50.058;8.306;2023-05-14T05:03:38;6.30;;;4.90;;
15155;SDS011;7678;50.058;8.306;2023-05-14T05:06:08;7.13;;;4.67;;
15155;SDS011;7678;50.058;8.306;2023-05-14T05:08:36;5.07;;;4.57;;
15155;SDS011;7678;50.058;8.306;2023-05-14T05:11:05;7.37;;;5.03;;
15155;SDS011;7678;50.058;8.306;2023-05-14T05:13:33;5.10;;;4.60;;
15155;SDS011;7678;50.058;8.306;2023-05-14T05:16:01;4.57;;;4.17;;
15155;SDS011;7678;50.058;8.306;2023-05-14T05:18:30;5.27;;;4.27;;
15155;SDS011;7678;50.058;8.306;2023-05-14T05:20:58;4.17;;;3.70;;
15155;SDS011;7678;50.058;8.306;2023-05-14T05:23:27;3.93;;;3.63;;
15155;SDS011;7678;50.058;8.306;2023-05-14T05:25:55;3.60;;;3.30;;
15155;SDS011;7678;50.058;8.306;2023-05-14T05:28:23;5.80;;;4.10;;
15155;SDS011;7678;50.058;8.306;2023-05-14T05:30:51;5.27;;;4.03;;
15155;SDS011;7678;50.058;8.306;2023-05-14T05:33:20;3.60;;;3.30;;
15155;SDS011;7678;50.058;8.306;2023-05-14T05:35:48;3.70;;;3.40;;
15155;SDS011;7678;50.058;8.306;2023-05-14T05:38:17;4.97;;;4.30;;
15155;SDS011;7678;50.058;8.306;2023-05-14T05:40:47;4.20;;;3.80;;
15155;SDS011;7678;50.058;8.306;2023-05-14T05:43:15;5.00;;;3.93;;
15155;SDS011;7678;50.058;8.306;2023-05-14T05:45:44;4.67;;;4.17;;
15155;SDS011;7678;50.058;8.306;2023-05-14T05:48:12;5.57;;;4.50;;
15155;SDS011;7678;50.058;8.306;2023-05-14T05:50:40;3.57;;;3.27;;
15155;SDS011;7678;50.058;8.306;2023-05-14T05:53:10;5.43;;;3.70;;
15155;SDS011;7678;50.058;8.306;2023-05-14T05:55:39;4.30;;;3.60;;
15155;SDS011;7678;50.058;8.306;2023-05-14T05:58:08;3.63;;;3.20;;
15155;SDS011;7678;50.058;8.306;2023-05-14T06:00:36;3.60;;;3.30;;
15155;SDS011;7678;50.058;8.306;2023-05-14T06:03:05;4.03;;;3.60;;
15155;SDS011;7678;50.058;8.306;2023-05-14T06:05:33;3.93;;;3.53;;
15155;SDS011;7678;50.058;8.306;2023-05-14T06:08:01;3.77;;;3.47;;
15155;SDS011;7678;50.058;8.306;2023-05-14T06:10:29;3.77;;;3.33;;
15155;SDS011;7678;50.058;8.306;2023-05-14T06:12:58;4.17;;;3.13;;
15155;SDS011;7678;50.058;8.306;2023-05-14T06:15:27;3.53;;;2.80;;
15155;SDS011;7678;50.058;8.306;2023-05-14T06:17:56;3.40;;;3.10;;
15155;SDS011;7678;50.058;8.306;2023-05-14T06:20:24;4.40;;;3.33;;
15155;SDS011;7678;50.058;8.306;2023-05-14T06:22:52;4.00;;;3.63;;
15155;SDS011;7678;50.058;8.306;2023-05-14T06:25:20;3.87;;;3.00;;
15155;SDS011;7678;50.058;8.306;2023-05-14T06:27:48;3.43;;;3.00;;
15155;SDS011;7678;50.058;8.306;2023-05-14T06:30:17;3.50;;;3.20;;
15155;SDS011;7678;50.058;8.306;2023-05-14T06:32:46;3.43;;;3.13;;
15155;SDS011;7678;50.058;8.306;2023-05-14T06:35:16;3.83;;;2.90;;
15155;SDS011;7678;50.058;8.306;2023-05-14T06:37:44;4.50;;;3.10;;
15155;SDS011;7678;50.058;8.306;2023-05-14T06:40:12;3.60;;;3.30;;
15155;SDS011;7678;50.058;8.306;2023-05-14T06:42:41;4.43;;;2.90;;
15155;SDS011;7678;50.058;8.306;2023-05-14T06:45:10;3.40;;;3.10;;
15155;SDS011;7678;50.058;8.306;2023-05-14T06:47:38;2.90;;;2.60;;
15155;SDS011;7678;50.058;8.306;2023-05-14T06:50:08;3.93;;;3.13;;
15155;SDS011;7678;50.058;8.306;2023-05-14T06:52:37;3.80;;;3.03;;
15155;SDS011;7678;50.058;8.306;2023-05-14T06:55:05;3.50;;;3.07;;
15155;SDS011;7678;50.058;8.306;2023-05-14T06:57:34;4.30;;;3.23;;
15155;SDS011;7678;50.058;8.306;2023-05-14T07:00:06;3.83;;;3.17;;
15155;SDS011;7678;50.058;8.306;2023-05-14T07:02:35;3.10;;;2.63;;
15155;SDS011;7678;50.058;8.306;2023-05-14T07:05:03;4.43;;;2.83;;
15155;SDS011;7678;50.058;8.306;2023-05-14T07:07:35;3.27;;;2.90;;
15155;SDS011;7678;50.058;8.306;2023-05-14T07:10:03;4.63;;;2.73;;
15155;SDS011;7678;50.058;8.306;2023-05-14T07:12:33;2.87;;;2.67;;
15155;SDS011;7678;50.058;8.306;2023-05-14T07:15:02;2.73;;;2.53;;
15155;SDS011;7678;50.058;8.306;2023-05-14T07:17:31;4.47;;;2.93;;
15155;SDS011;7678;50.058;8.306;2023-05-14T07:19:59;3.10;;;2.80;;
15155;SDS011;7678;50.058;8.306;2023-05-14T07:22:27;2.87;;;2.57;;
15155;SDS011;7678;50.058;8.306;2023-05-14T07:24:56;2.90;;;2.60;;
15155;SDS011;7678;50.058;8.306;2023-05-14T07:27:24;4.63;;;2.70;;
15155;SDS011;7678;50.058;8.306;2023-05-14T07:29:52;2.93;;;2.63;;
15155;SDS011;7678;50.058;8.306;2023-05-14T07:32:20;2.87;;;2.67;;
15155;SDS011;7678;50.058;8.306;2023-05-14T07:34:50;2.97;;;2.67;;
15155;SDS011;7678;50.058;8.306;2023-05-14T07:37:18;3.97;;;2.90;;
15155;SDS011;7678;50.058;8.306;2023-05-14T07:39:49;3.20;;;2.90;;
15155;SDS011;7678;50.058;8.306;2023-05-14T07:42:20;3.37;;;2.70;;
15155;SDS011;7678;50.058;8.306;2023-05-14T07:45:01;2.93;;;2.50;;
15155;SDS011;7678;50.058;8.306;2023-05-14T07:47:29;4.27;;;2.90;;
15155;SDS011;7678;50.058;8.306;2023-05-14T07:49:58;2.90;;;2.60;;
15155;SDS011;7678;50.058;8.306;2023-05-14T07:52:26;2.70;;;2.50;;
15155;SDS011;7678;50.058;8.306;2023-05-14T07:54:54;2.93;;;2.60;;
15155;SDS011;7678;50.058;8.306;2023-05-14T07:57:23;5.90;;;2.63;;
15155;SDS011;7678;50.058;8.306;2023-05-14T07:59:51;4.03;;;3.07;;
15155;SDS011;7678;50.058;8.306;2023-05-14T08:02:19;4.37;;;2.43;;
15155;SDS011;7678;50.058;8.306;2023-05-14T08:04:48;3.20;;;2.60;;
15155;SDS011;7678;50.058;8.306;2023-05-14T08:07:16;3.07;;;2.80;;
15155;SDS011;7678;50.058;8.306;2023-05-14T08:09:45;3.00;;;2.60;;
15155;SDS011;7678;50.058;8.306;2023-05-14T08:12:13;4.37;;;2.70;;
15155;SDS011;7678;50.058;8.306;2023-05-14T08:14:43;3.67;;;3.10;;
15155;SDS011;7678;50.058;8.306;2023-05-14T08:17:12;3.40;;;3.10;;
15155;SDS011;7678;50.058;8.306;2023-05-14T08:19:40;3.00;;;2.70;;
15155;SDS011;7678;50.058;8.306;2023-05-14T08:22:08;5.33;;;2.60;;
15155;SDS011;7678;50.058;8.306;2023-05-14T08:24:36;2.90;;;2.70;;
15155;SDS011;7678;50.058;8.306;2023-05-14T08:27:04;3.13;;;2.47;;
15155;SDS011;7678;50.058;8.306;2023-05-14T08:29:33;4.33;;;2.60;;
15155;SDS011;7678;50.058;8.306;2023-05-14T08:32:02;3.00;;;2.53;;
15155;SDS011;7678;50.058;8.306;2023-05-14T08:34:48;4.13;;;2.70;;
15155;SDS011;7678;50.058;8.306;2023-05-14T08:37:17;3.73;;;2.73;;
15155;SDS011;7678;50.058;8.306;2023-05-14T08:39:45;2.73;;;2.53;;
15155;SDS011;7678;50.058;8.306;2023-05-14T08:42:13;3.27;;;2.47;;
15155;SDS011;7678;50.058;8.306;2023-05-14T08:44:47;3.43;;;2.90;;
15155;SDS011;7678;50.058;8.306;2023-05-14T08:47:19;2.97;;;2.57;;
15155;SDS011;7678;50.058;8.306;2023-05-14T08:49:48;3.67;;;2.67;;
15155;SDS011;7678;50.058;8.306;2023-05-14T08:52:21;2.53;;;2.33;;
15155;SDS011;7678;50.058;8.306;2023-05-14T08:54:49;2.60;;;2.40;;
15155;SDS011;7678;50.058;8.306;2023-05-14T08:57:19;3.30;;;2.37;;
15155;SDS011;7678;50.058;8.306;2023-05-14T08:59:50;2.80;;;2.20;;
15155;SDS011;7678;50.058;8.306;2023-05-14T09:02:20;3.57;;;2.60;;
15155;SDS011;7678;50.058;8.306;2023-05-14T09:04:52;3.20;;;2.30;;
15155;SDS011;7678;50.058;8.306;2023-05-14T09:07:22;3.37;;;2.20;;
15155;SDS011;7678;50.058;8.306;2023-05-14T09:09:51;2.60;;;2.40;;
15155;SDS011;7678;50.058;8.306;2023-05-14T09:12:20;2.87;;;2.30;;
15155;SDS011;7678;50.058;8.306;2023-05-14T09:14:48;2.43;;;2.00;;
15155;SDS011;7678;50.058;8.306;2023-05-14T09:17:17;2.40;;;2.13;;
15155;SDS011;7678;50.058;8.306;2023-05-14T09:19:47;2.40;;;2.20;;
15155;SDS011;7678;50.058;8.306;2023-05-14T09:22:18;2.40;;;2.00;;
15155;SDS011;7678;50.058;8.306;2023-05-14T09:24:49;2.10;;;1.90;;
15155;SDS011;7678;50.058;8.306;2023-05-14T09:27:29;2.60;;;2.40;;
15155;SDS011;7678;50.058;8.306;2023-05-14T09:30:05;2.40;;;2.20;;
15155;SDS011;7678;50.058;8.306;2023-05-14T09:32:36;2.93;;;2.13;;
15155;SDS011;7678;50.058;8.306;2023-05-14T09:35:09;3.00;;;2.30;;
15155;SDS011;7678;50.058;8.306;2023-05-14T09:37:40;2.80;;;2.50;;
15155;SDS011;7678;50.058;8.306;2023-05-14T09:40:09;3.40;;;2.30;;
15155;SDS011;7678;50.058;8.306;2023-05-14T09:42:39;2.30;;;2.10;;
15155;SDS011;7678;50.058;8.306;2023-05-14T09:45:08;2.70;;;2.30;;
15155;SDS011;7678;50.058;8.306;2023-05-14T09:47:38;4.27;;;2.00;;
15155;SDS011;7678;50.058;8.306;2023-05-14T09:50:06;3.47;;;2.50;;
15155;SDS011;7678;50.058;8.306;2023-05-14T09:52:35;3.07;;;2.40;;
15155;SDS011;7678;50.058;8.306;2023-05-14T09:55:04;5.43;;;3.07;;
15155;SDS011;7678;50.058;8.306;2023-05-14T09:57:33;3.73;;;2.80;;
15155;SDS011;7678;50.058;8.306;2023-05-14T10:00:02;2.70;;;2.50;;
15155;SDS011;7678;50.058;8.306;2023-05-14T10:02:33;4.23;;;2.20;;
15155;SDS011;7678;50.058;8.306;2023-05-14T10:05:06;3.10;;;2.43;;
15155;SDS011;7678;50.058;8.306;2023-05-14T10:07:37;2.83;;;2.10;;
15155;SDS011;7678;50.058;8.306;2023-05-14T10:10:09;2.43;;;2.10;;
15155;SDS011;7678;50.058;8.306;2023-05-14T10:12:41;3.77;;;2.30;;
15155;SDS011;7678;50.058;8.306;2023-05-14T10:15:15;2.53;;;2.07;;
15155;SDS011;7678;50.058;8.306;2023-05-14T10:17:48;2.43;;;2.23;;
15155;SDS011;7678;50.058;8.306;2023-05-14T10:20:21;2.80;;;2.60;;
15155;SDS011;7678;50.058;8.306;2023-05-14T10:22:52;2.70;;;2.40;;
15155;SDS011;7678;50.058;8.306;2023-05-14T10:25:20;3.53;;;2.03;;
15155;SDS011;7678;50.058;8.306;2023-05-14T10:27:49;3.57;;;2.30;;
15155;SDS011;7678;50.058;8.306;2023-05-14T10:30:20;2.47;;;2.27;;
15155;SDS011;7678;50.058;8.306;2023-05-14T10:32:54;2.27;;;2.07;;
15155;SDS011;7678;50.058;8.306;2023-05-14T10:38:26;3.50;;;2.67;;
15155;SDS011;7678;50.058;8.306;2023-05-14T10:41:00;3.57;;;2.60;;
15155;SDS011;7678;50.058;8.306;2023-05-14T10:43:31;2.40;;;2.20;;
15155;SDS011;7678;50.058;8.306;2023-05-14T10:46:04;3.70;;;2.20;;
15155;SDS011;7678;50.058;8.306;2023-05-14T10:48:33;2.53;;;2.33;;
15155;SDS011;7678;50.058;8.306;2023-05-14T10:51:05;1.90;;;1.80;;
15155;SDS011;7678;50.058;8.306;2023-05-14T10:53:35;2.40;;;2.20;;
15155;SDS011;7678;50.058;8.306;2023-05-14T10:56:07;11.10;;;6.20;;
15155;SDS011;7678;50.058;8.306;2023-05-14T10:58:37;4.17;;;2.10;;
15155;SDS011;7678;50.058;8.306;2023-05-14T11:01:07;4.37;;;2.10;;
15155;SDS011;7678;50.058;8.306;2023-05-14T11:03:41;1.73;;;1.63;;
15155;SDS011;7678;50.058;8.306;2023-05-14T11:06:12;1.97;;;1.87;;
15155;SDS011;7678;50.058;8.306;2023-05-14T11:08:42;1.83;;;1.73;;
15155;SDS011;7678;50.058;8.306;2023-05-14T11:11:12;2.10;;;1.90;;
15155;SDS011;7678;50.058;8.306;2023-05-14T11:13:40;2.50;;;1.70;;
15155;SDS011;7678;50.058;8.306;2023-05-14T11:16:10;2.63;;;1.90;;
15155;SDS011;7678;50.058;8.306;2023-05-14T11:18:51;2.00;;;1.60;;
15155;SDS011;7678;50.058;8.306;2023-05-14T11:21:22;3.67;;;2.13;;
15155;SDS011;7678;50.058;8.306;2023-05-14T11:23:50;3.80;;;2.97;;
15155;SDS011;7678;50.058;8.306;2023-05-14T11:26:18;2.80;;;2.37;;
15155;SDS011;7678;50.058;8.306;2023-05-14T11:28:47;2.50;;;2.30;;
15155;SDS011;7678;50.058;8.306;2023-05-14T11:31:15;2.13;;;1.87;;
15155;SDS011;7678;50.058;8.306;2023-05-14T11:33:44;2.67;;;1.70;;
15155;SDS011;7678;50.058;8.306;2023-05-14T11:36:12;3.37;;;2.70;;
15155;SDS011;7678;50.058;8.306;2023-05-14T11:38:48;2.57;;;2.20;;
15155;SDS011;7678;50.058;8.306;2023-05-14T11:41:18;2.60;;;2.10;;
15155;SDS011;7678;50.058;8.306;2023-05-14T11:43:48;1.87;;;1.77;;
15155;SDS011;7678;50.058;8.306;2023-05-14T11:46:16;3.80;;;2.20;;
15155;SDS011;7678;50.058;8.306;2023-05-14T11:48:45;2.07;;;1.80;;
15155;SDS011;7678;50.058;8.306;2023-05-14T11:51:13;3.97;;;2.23;;
15155;SDS011;7678;50.058;8.306;2023-05-14T11:53:41;2.30;;;2.10;;
15155;SDS011;7678;50.058;8.306;2023-05-14T11:56:10;2.07;;;1.80;;
15155;SDS011;7678;50.058;8.306;2023-05-14T11:58:38;2.27;;;2.00;;
15155;SDS011;7678;50.058;8.306;2023-05-14T12:01:11;3.03;;;2.10;;
15155;SDS011;7678;50.058;8.306;2023-05-14T12:03:40;4.13;;;2.07;;
15155;SDS011;7678;50.058;8.306;2023-05-14T12:06:08;2.20;;;2.00;;
15155;SDS011;7678;50.058;8.306;2023-05-14T12:08:36;4.57;;;2.00;;
15155;SDS011;7678;50.058;8.306;2023-05-14T12:11:04;3.23;;;2.13;;
15155;SDS011;7678;50.058;8.306;2023-05-14T12:13:35;3.17;;;2.50;;
15155;SDS011;7678;50.058;8.306;2023-05-14T12:16:03;3.27;;;2.10;;
15155;SDS011;7678;50.058;8.306;2023-05-14T12:18:32;2.23;;;1.90;;
15155;SDS011;7678;50.058;8.306;2023-05-14T12:21:00;2.37;;;2.13;;
15155;SDS011;7678;50.058;8.306;2023-05-14T12:23:29;4.90;;;1.93;;
15155;SDS011;7678;50.058;8.306;2023-05-14T12:26:00;2.20;;;1.80;;
15155;SDS011;7678;50.058;8.306;2023-05-14T12:28:31;2.20;;;2.00;;
15155;SDS011;7678;50.058;8.306;2023-05-14T12:31:04;2.03;;;1.70;;
15155;SDS011;7678;50.058;8.306;2023-05-14T12:33:32;2.00;;;1.70;;
15155;SDS011;7678;50.058;8.306;2023-05-14T12:36:00;2.10;;;1.90;;
15155;SDS011;7678;50.058;8.306;2023-05-14T12:38:31;2.70;;;1.93;;
15155;SDS011;7678;50.058;8.306;2023-05-14T12:41:00;2.73;;;1.97;;
15155;SDS011;7678;50.058;8.306;2023-05-14T12:43:30;2.00;;;1.73;;
15155;SDS011;7678;50.058;8.306;2023-05-14T12:45:58;2.90;;;1.70;;
15155;SDS011;7678;50.058;8.306;2023-05-14T12:48:28;2.40;;;1.90;;
15155;SDS011;7678;50.058;8.306;2023-05-14T12:50:56;3.40;;;2.00;;
15155;SDS011;7678;50.058;8.306;2023-05-14T12:53:24;2.50;;;2.30;;
15155;SDS011;7678;50.058;8.306;2023-05-14T12:55:52;3.13;;;2.23;;
15155;SDS011;7678;50.058;8.306;2023-05-14T12:58:21;2.13;;;1.80;;
15155;SDS011;7678;50.058;8.306;2023-05-14T13:00:49;2.30;;;2.00;;
15155;SDS011;7678;50.058;8.306;2023-05-14T13:03:17;3.00;;;2.07;;
15155;SDS011;7678;50.058;8.306;2023-05-14T13:05:48;2.60;;;1.90;;
15155;SDS011;7678;50.058;8.306;2023-05-14T13:08:17;3.57;;;2.00;;
15155;SDS011;7678;50.058;8.306;2023-05-14T13:10:46;3.53;;;1.87;;
15155;SDS011;7678;50.058;8.306;2023-05-14T13:13:15;1.93;;;1.80;;
15155;SDS011;7678;50.058;8.306;2023-05-14T13:15:43;1.97;;;1.77;;
15155;SDS011;7678;50.058;8.306;2023-05-14T13:18:14;3.60;;;1.93;;
15155;SDS011;7678;50.058;8.306;2023-05-14T13:20:43;1.60;;;1.50;;
15155;SDS011;7678;50.058;8.306;2023-05-14T13:23:15;1.90;;;1.53;;
15155;SDS011;7678;50.058;8.306;2023-05-14T13:25:44;2.47;;;1.60;;
15155;SDS011;7678;50.058;8.306;2023-05-14T13:28:15;2.33;;;1.50;;
15155;SDS011;7678;50.058;8.306;2023-05-14T13:30:44;3.00;;;1.60;;
15155;SDS011;7678;50.058;8.306;2023-05-14T13:33:31;2.53;;;1.60;;
15155;SDS011;7678;50.058;8.306;2023-05-14T13:36:02;1.47;;;1.37;;
15155;SDS011;7678;50.058;8.306;2023-05-14T13:38:31;2.20;;;1.80;;
15155;SDS011;7678;50.058;8.306;2023-05-14T13:41:00;1.67;;;1.57;;
15155;SDS011;7678;50.058;8.306;2023-05-14T13:43:29;2.00;;;1.80;;
15155;SDS011;7678;50.058;8.306;2023-05-14T13:45:57;1.63;;;1.50;;
15155;SDS011;7678;50.058;8.306;2023-05-14T13:48:26;3.70;;;1.70;;
15155;SDS011;7678;50.058;8.306;2023-05-14T13:50:54;1.40;;;1.30;;
15155;SDS011;7678;50.058;8.306;2023-05-14T13:53:23;2.07;;;1.90;;
15155;SDS011;7678;50.058;8.306;2023-05-14T13:55:52;2.20;;;1.63;;
15155;SDS011;7678;50.058;8.306;2023-05-14T13:58:25;2.83;;;1.67;;
15155;SDS011;7678;50.058;8.306;2023-05-14T14:00:55;2.23;;;1.97;;
15155;SDS011;7678;50.058;8.306;2023-05-14T14:03:23;1.80;;;1.70;;
15155;SDS011;7678;50.058;8.306;2023-05-14T14:05:51;1.77;;;1.50;;
15155;SDS011;7678;50.058;8.306;2023-05-14T14:08:19;2.90;;;2.27;;
15155;SDS011;7678;50.058;8.306;2023-05-14T14:10:50;1.97;;;1.60;;
15155;SDS011;7678;50.058;8.306;2023-05-14T14:13:22;3.87;;;1.90;;
15155;SDS011;7678;50.058;8.306;2023-05-14T14:15:50;1.43;;;1.33;;
